Time;durP1;ratioP1;P1;durP2;ratioP2;P2;SDS_P1;SDS_P2;PMS_P1;PMS_P2;Temp;Humidity;BMP_temperature;BMP_pressure;BME280_temperature;BME280_humidity;BME280_pressure;Samples;Min_cycle;Max_cycle;Signal;HPM_P1;HPM_P2
2022/01/09 00:01:15;;;;;;;;;9.75;3.50;;;;;6.62;83.57;99147.53;5054860;28;45444;-65
2022/01/09 00:03:40;;;;;;;;;5.00;3.00;;;;;6.49;82.12;99130.75;5057457;28;45620;-67
2022/01/09 00:06:06;;;;;;;;;5.75;3.25;;;;;6.65;81.91;99173.53;5059938;28;45485;-65
2022/01/09 00:08:31;;;;;;;;;5.75;2.25;;;;;6.62;82.09;99180.69;5057559;28;45399;-69
2022/01/09 00:10:57;;;;;;;;;6.00;2.50;;;;;6.58;81.97;99179.97;5037736;28;45830;-63
2022/01/09 00:13:22;;;;;;;;;4.50;2.00;;;;;6.53;81.58;99172.34;5034832;28;46205;-60
2022/01/09 00:15:49;;;;;;;;;4.75;2.75;;;;;6.51;80.58;99183.78;5056725;28;45431;-59
2022/01/09 00:18:14;;;;;;;;;3.25;2.00;;;;;6.46;81.64;99184.00;5056288;28;45247;-64
2022/01/09 00:20:40;;;;;;;;;2.25;1.75;;;;;6.43;81.12;99197.19;5059728;28;45378;-66
2022/01/09 00:23:05;;;;;;;;;4.00;3.00;;;;;6.39;82.01;99198.25;5059217;28;45397;-72
2022/01/09 00:25:31;;;;;;;;;8.50;3.25;;;;;6.33;80.69;99193.28;5059900;28;45396;-67
2022/01/09 00:27:56;;;;;;;;;8.75;2.00;;;;;6.23;82.66;99203.31;5061061;28;45346;-60
2022/01/09 00:30:23;;;;;;;;;7.50;4.00;;;;;6.24;81.83;99211.06;5057891;28;45266;-69
2022/01/09 00:32:50;;;;;;;;;7.00;2.50;;;;;6.19;82.61;99222.63;5057858;28;46509;-68
2022/01/09 00:35:16;;;;;;;;;2.75;2.00;;;;;6.16;82.43;99220.16;5060721;28;45416;-71
2022/01/09 00:37:41;;;;;;;;;5.00;3.25;;;;;6.10;82.13;99213.44;5059309;28;45730;-68
2022/01/09 00:40:09;;;;;;;;;9.00;3.00;;;;;6.11;82.18;99233.41;5058539;28;45541;-68
2022/01/09 00:42:34;;;;;;;;;8.25;2.25;;;;;6.08;83.36;99243.97;5058879;28;46351;-69
2022/01/09 00:45:00;;;;;;;;;6.25;3.00;;;;;6.04;83.60;99245.88;5058912;28;45304;-65
2022/01/09 00:47:26;;;;;;;;;6.50;1.50;;;;;6.02;83.94;99249.47;5038755;28;45350;-70
2022/01/09 00:49:51;;;;;;;;;5.25;3.00;;;;;5.98;84.31;99257.41;5057421;28;45288;-67
2022/01/09 00:52:16;;;;;;;;;5.50;2.50;;;;;5.96;84.71;99253.16;5059684;28;46005;-68
2022/01/09 00:54:42;;;;;;;;;6.25;4.50;;;;;5.91;85.03;99263.78;5059946;28;45330;-72
2022/01/09 00:57:07;;;;;;;;;3.75;2.00;;;;;5.91;83.97;99266.41;5061385;28;45798;-71
2022/01/09 00:59:33;;;;;;;;;3.50;1.00;;;;;5.88;84.36;99286.56;5059322;28;45248;-68
2022/01/09 01:01:58;;;;;;;;;6.00;3.25;;;;;5.87;83.28;99287.50;5038687;28;46783;-67
2022/01/09 01:04:25;;;;;;;;;5.75;2.00;;;;;5.80;83.63;99273.84;5056883;28;45267;-71
2022/01/09 01:06:51;;;;;;;;;7.75;4.00;;;;;5.85;82.95;99295.38;5058245;28;45328;-62
2022/01/09 01:09:17;;;;;;;;;5.25;3.00;;;;;5.83;82.84;99300.66;5056943;28;45348;-59
2022/01/09 01:11:42;;;;;;;;;9.00;2.75;;;;;5.82;81.93;99311.16;5055504;28;45358;-67
2022/01/09 01:14:08;;;;;;;;;3.75;2.00;;;;;5.83;82.17;99316.31;5056429;28;45287;-70
2022/01/09 01:16:34;;;;;;;;;4.50;4.25;;;;;5.82;81.67;99334.63;5056948;28;45424;-70
2022/01/09 01:19:00;;;;;;;;;3.50;1.75;;;;;5.78;81.66;99325.25;5064884;28;45540;-66
2022/01/09 01:21:26;;;;;;;;;5.75;3.00;;;;;5.82;81.08;99332.84;5056219;28;45473;-71
2022/01/09 01:23:52;;;;;;;;;3.75;2.50;;;;;5.86;82.01;99351.88;5054973;28;45272;-71
2022/01/09 01:26:18;;;;;;;;;5.50;1.50;;;;;5.86;81.34;99362.31;5055579;28;45379;-58
2022/01/09 01:28:43;;;;;;;;;4.50;1.00;;;;;5.75;81.35;99343.63;5055309;28;45614;-56
2022/01/09 01:31:10;;;;;;;;;6.50;2.00;;;;;5.79;81.37;99373.91;5055617;28;46170;-70
2022/01/09 01:33:36;;;;;;;;;7.25;2.75;;;;;5.76;82.43;99379.25;5055559;28;45400;-70
2022/01/09 01:36:02;;;;;;;;;3.25;1.25;;;;;5.74;82.47;99384.50;5055813;28;45281;-70
2022/01/09 01:38:27;;;;;;;;;3.25;2.00;;;;;5.73;82.20;99392.41;5056591;28;45546;-72
2022/01/09 01:40:52;;;;;;;;;2.50;1.75;;;;;5.70;82.56;99399.44;5055577;28;46430;-70
2022/01/09 01:43:18;;;;;;;;;2.75;2.00;;;;;5.75;82.78;99411.47;5054914;28;45358;-70
2022/01/09 01:45:43;;;;;;;;;4.50;1.75;;;;;5.81;83.23;99429.50;5054853;28;45552;-67
2022/01/09 01:48:09;;;;;;;;;4.00;1.50;;;;;5.82;82.69;99436.41;5057530;28;45520;-69
2022/01/09 01:50:38;;;;;;;;;4.50;2.50;;;;;5.88;84.41;99436.16;5058007;28;45805;-66
2022/01/09 01:53:13;;;;;;;;;1.25;1.25;;;;;5.84;87.07;99458.94;5056537;28;45303;-70
2022/01/09 01:55:40;;;;;;;;;3.75;1.50;;;;;5.73;89.02;99439.38;5036989;28;45428;-68
2022/01/09 01:58:08;;;;;;;;;5.25;3.00;;;;;5.53;90.52;99473.13;5055580;28;45272;-67
2022/01/09 02:00:34;;;;;;;;;3.75;2.50;;;;;5.25;96.73;99445.47;5054481;28;46653;-65
2022/01/09 02:03:00;;;;;;;;;6.50;2.00;;;;;5.12;97.88;99450.25;5055569;28;45578;-69
2022/01/09 02:05:26;;;;;;;;;5.00;3.00;;;;;5.00;98.58;99461.13;5054776;28;45393;-68
2022/01/09 02:07:53;;;;;;;;;5.75;2.00;;;;;4.94;99.92;99466.56;5054471;28;45530;-70
2022/01/09 02:10:19;;;;;;;;;5.00;3.25;;;;;4.91;100.00;99464.06;5054686;28;46881;-70
2022/01/09 02:12:45;;;;;;;;;3.00;2.75;;;;;4.90;100.00;99464.97;5055192;28;45425;-66
2022/01/09 02:15:33;;;;;;;;;3.25;2.75;;;;;4.86;99.15;99474.66;5055011;28;45362;-69
2022/01/09 02:18:08;;;;;;;;;3.00;2.00;;;;;4.81;98.35;99466.97;5042051;28;45229;-68
2022/01/09 02:20:35;;;;;;;;;4.50;1.00;;;;;4.86;98.13;99505.94;5053904;28;45489;-62
2022/01/09 02:23:01;;;;;;;;;1.25;0.75;;;;;4.86;96.90;99492.03;5055011;28;45498;-68
2022/01/09 02:25:27;;;;;;;;;3.75;1.75;;;;;4.82;96.40;99497.34;5055892;28;45292;-72
2022/01/09 02:27:53;;;;;;;;;3.75;2.50;;;;;4.83;96.39;99506.03;5055992;28;45225;-65
2022/01/09 02:30:19;;;;;;;;;4.75;1.00;;;;;4.77;95.45;99491.44;5054699;28;45445;-69
2022/01/09 02:32:44;;;;;;;;;5.00;2.00;;;;;4.69;95.57;99496.06;5054957;28;45459;-67
2022/01/09 02:35:10;;;;;;;;;3.75;1.00;;;;;4.68;95.95;99494.34;5054978;28;45638;-67
2022/01/09 02:37:35;;;;;;;;;1.75;1.75;;;;;4.77;95.46;99514.88;5055692;28;45577;-66
2022/01/09 02:40:01;;;;;;;;;10.50;1.00;;;;;4.75;94.42;99501.06;5061623;28;45533;-69
2022/01/09 02:42:29;;;;;;;;;1.25;0.00;;;;;4.70;93.03;99495.16;5057889;28;45314;-65
2022/01/09 02:44:56;;;;;;;;;1.00;1.00;;;;;4.72;94.25;99518.53;5057973;28;45271;-70
2022/01/09 02:47:22;;;;;;;;;3.00;1.00;;;;;4.71;93.73;99520.31;5059488;28;45454;-67
2022/01/09 02:49:51;;;;;;;;;4.50;1.00;;;;;4.76;93.91;99540.97;5057863;28;46348;-66
2022/01/09 02:52:29;;;;;;;;;2.00;1.00;;;;;4.74;94.74;99530.63;5057510;28;45610;-68
2022/01/09 02:55:14;;;;;;;;;2.00;0.00;;;;;4.70;94.68;99531.63;5057388;28;45423;-70
2022/01/09 02:57:47;;;;;;;;;0.00;0.00;;;;;4.63;94.22;99525.75;5051530;28;45392;-71
2022/01/09 03:00:36;;;;;;;;;3.50;1.00;;;;;4.57;94.52;99525.94;5056895;28;46220;-69
2022/01/09 03:03:02;;;;;;;;;3.00;2.00;;;;;4.53;94.51;99527.81;5038179;28;45513;-67
2022/01/09 03:05:29;;;;;;;;;2.75;0.25;;;;;4.58;94.13;99542.44;5044062;28;45411;-72
2022/01/09 03:07:55;;;;;;;;;2.75;0.00;;;;;4.52;94.24;99538.28;5058078;28;45312;-70
2022/01/09 03:10:22;;;;;;;;;2.00;0.25;;;;;4.58;94.93;99538.06;5057796;28;46167;-70
2022/01/09 03:12:50;;;;;;;;;1.00;0.00;;;;;4.60;94.64;99548.47;5058286;28;45321;-71
2022/01/09 03:15:16;;;;;;;;;1.25;0.00;;;;;4.59;94.44;99557.16;5062972;28;45360;-71
2022/01/09 03:17:43;;;;;;;;;2.00;0.50;;;;;4.59;94.54;99549.34;5042398;28;45191;-69
2022/01/09 03:20:11;;;;;;;;;1.75;1.75;;;;;4.57;94.71;99549.41;5059989;28;46187;-68
2022/01/09 03:22:37;;;;;;;;;3.00;1.00;;;;;4.63;93.99;99548.34;5060208;28;45387;-68
2022/01/09 03:25:03;;;;;;;;;1.75;1.00;;;;;4.66;94.36;99551.69;5061385;28;45319;-71
2022/01/09 03:27:28;;;;;;;;;1.25;0.25;;;;;4.70;93.92;99552.47;5066849;28;45331;-70
2022/01/09 03:29:54;;;;;;;;;3.00;1.00;;;;;4.75;93.50;99553.16;5057276;28;46581;-68
2022/01/09 03:32:19;;;;;;;;;5.25;1.00;;;;;4.80;93.83;99548.66;5058152;28;45546;-69
2022/01/09 03:34:45;;;;;;;;;2.00;1.00;;;;;4.86;93.22;99560.66;5058938;28;45362;-71
2022/01/09 03:37:10;;;;;;;;;3.00;1.00;;;;;4.92;92.96;99554.38;5058502;28;45563;-71
2022/01/09 03:39:36;;;;;;;;;2.00;0.50;;;;;4.99;92.80;99573.25;5061545;28;45332;-71
2022/01/09 03:42:01;;;;;;;;;2.00;1.00;;;;;5.01;92.85;99589.72;5050738;28;45323;-71
2022/01/09 03:44:27;;;;;;;;;7.00;1.50;;;;;5.00;93.54;99603.63;5058893;28;45332;-70
2022/01/09 03:46:54;;;;;;;;;4.75;2.00;;;;;4.94;97.76;99605.53;5058260;28;45650;-67
2022/01/09 03:49:19;;;;;;;;;2.00;1.00;;;;;4.80;100.00;99631.19;5056430;28;46382;-71
2022/01/09 03:51:47;;;;;;;;;5.00;1.75;;;;;4.61;100.00;99607.47;5055666;28;45398;-71
2022/01/09 03:54:13;;;;;;;;;4.50;1.75;;;;;4.50;100.00;99600.84;5035438;28;45633;-70
2022/01/09 03:56:38;;;;;;;;;4.00;1.00;;;;;4.37;100.00;99622.94;5038466;28;45352;-70
2022/01/09 03:59:04;;;;;;;;;3.50;1.50;;;;;4.23;100.00;99610.31;5059187;28;45330;-70
2022/01/09 04:01:29;;;;;;;;;4.00;0.25;;;;;4.12;100.00;99612.41;5058944;28;45455;-69
2022/01/09 04:03:55;;;;;;;;;1.25;1.00;;;;;4.00;100.00;99590.16;5059211;28;45371;-67
2022/01/09 04:06:23;;;;;;;;;2.00;1.00;;;;;3.94;100.00;99593.81;5058585;28;45642;-68
2022/01/09 04:08:51;;;;;;;;;3.75;1.00;;;;;3.86;100.00;99591.41;5057186;28;46912;-62
2022/01/09 04:11:23;;;;;;;;;6.25;0.75;;;;;3.81;100.00;99580.28;5056768;28;45426;-68
2022/01/09 04:13:49;;;;;;;;;2.00;1.00;;;;;3.74;100.00;99565.75;5040401;28;45245;-61
2022/01/09 04:16:15;;;;;;;;;1.00;1.00;;;;;3.72;100.00;99571.03;5056983;28;45462;-65
2022/01/09 04:18:40;;;;;;;;;4.00;1.00;;;;;3.73;100.00;99574.47;5055741;28;46056;-59
2022/01/09 04:21:05;;;;;;;;;6.50;1.00;;;;;3.74;100.00;99574.44;5056153;28;45476;-63
2022/01/09 04:23:31;;;;;;;;;3.75;2.00;;;;;3.68;100.00;99566.78;5057487;28;45335;-66
2022/01/09 04:25:56;;;;;;;;;3.25;2.00;;;;;3.73;100.00;99590.94;5056874;28;45422;-68
2022/01/09 04:28:22;;;;;;;;;3.00;2.00;;;;;3.76;100.00;99605.59;5056456;28;45571;-68
2022/01/09 04:30:47;;;;;;;;;2.50;2.00;;;;;3.77;100.00;99604.69;5056613;28;45363;-59
2022/01/09 04:33:13;;;;;;;;;2.00;1.00;;;;;3.79;100.00;99593.38;5036764;28;45349;-57
2022/01/09 04:35:39;;;;;;;;;2.75;2.00;;;;;3.85;100.00;99610.53;5049886;28;45328;-62
2022/01/09 04:38:05;;;;;;;;;8.00;1.00;;;;;3.91;100.00;99602.56;5056604;28;45342;-58
2022/01/09 04:40:32;;;;;;;;;5.25;2.00;;;;;3.90;100.00;99585.22;5038451;28;45386;-55
2022/01/09 04:43:00;;;;;;;;;3.00;2.00;;;;;3.95;100.00;99591.16;5056762;28;45261;-58
2022/01/09 04:45:28;;;;;;;;;2.75;1.75;;;;;3.99;100.00;99596.28;5057571;28;45432;-59
2022/01/09 04:47:57;;;;;;;;;6.00;2.00;;;;;3.97;100.00;99592.88;5037795;28;48314;-55
2022/01/09 04:50:25;;;;;;;;;5.25;1.75;;;;;4.02;100.00;99602.25;5055289;28;45447;-57
2022/01/09 04:52:57;;;;;;;;;8.00;2.25;;;;;4.03;100.00;99609.16;5055235;28;45339;-61
2022/01/09 04:55:23;;;;;;;;;3.75;0.00;;;;;4.05;100.00;99622.13;5055682;28;45426;-60
2022/01/09 04:57:48;;;;;;;;;3.00;0.00;;;;;4.08;100.00;99601.22;5056187;28;45420;-60
2022/01/09 05:00:14;;;;;;;;;2.25;1.00;;;;;4.08;100.00;99593.41;5055728;28;45368;-58
2022/01/09 05:02:39;;;;;;;;;3.00;0.00;;;;;4.06;100.00;99598.66;5054914;28;45615;-61
2022/01/09 05:05:08;;;;;;;;;5.25;1.00;;;;;4.07;100.00;99602.09;5056030;28;45351;-62
2022/01/09 05:07:34;;;;;;;;;4.00;1.00;;;;;4.08;100.00;99601.22;5038617;28;48033;-69
2022/01/09 05:09:59;;;;;;;;;2.75;0.50;;;;;4.11;100.00;99608.94;5057802;28;45174;-66
2022/01/09 05:12:24;;;;;;;;;4.25;0.75;;;;;4.11;100.00;99608.94;5058589;28;45174;-67
2022/01/09 05:14:50;;;;;;;;;3.00;2.75;;;;;4.05;100.00;99594.34;5038344;28;45527;-69
2022/01/09 05:17:15;;;;;;;;;2.50;1.00;;;;;4.14;100.00;99606.22;5037241;28;46046;-69
2022/01/09 05:19:41;;;;;;;;;3.75;1.25;;;;;4.14;100.00;99606.22;5056786;28;45341;-62
2022/01/09 05:22:08;;;;;;;;;2.00;1.00;;;;;4.15;100.00;99607.94;5055633;28;45174;-67
2022/01/09 05:24:35;;;;;;;;;2.75;1.75;;;;;4.17;100.00;99613.94;5056122;28;45501;-63
2022/01/09 05:27:00;;;;;;;;;4.75;1.50;;;;;4.18;100.00;99609.63;5055436;28;46998;-69
2022/01/09 05:29:25;;;;;;;;;4.00;1.50;;;;;4.17;100.00;99611.34;5059642;28;45359;-68
2022/01/09 05:31:51;;;;;;;;;6.50;1.00;;;;;4.16;100.00;99598.41;5057887;28;45474;-67
2022/01/09 05:34:16;;;;;;;;;0.00;0.00;;;;;4.20;100.00;99593.03;5056976;28;45292;-67
2022/01/09 05:36:42;;;;;;;;;2.50;1.00;;;;;4.26;100.00;99591.19;5056664;28;45506;-60
2022/01/09 05:39:08;;;;;;;;;3.25;1.50;;;;;4.32;100.00;99601.41;5058015;28;45409;-64
2022/01/09 05:41:33;;;;;;;;;4.00;1.00;;;;;4.34;100.00;99595.25;5057762;28;45582;-68
2022/01/09 05:43:59;;;;;;;;;4.75;1.00;;;;;4.34;100.00;99574.41;5058883;28;45444;-69
2022/01/09 05:46:24;;;;;;;;;8.25;2.00;;;;;4.46;100.00;99590.56;5039562;28;47721;-68
2022/01/09 05:48:50;;;;;;;;;8.25;2.00;;;;;4.46;100.00;99570.59;5056238;28;45347;-66
2022/01/09 05:51:16;;;;;;;;;3.75;2.00;;;;;4.60;100.00;99588.38;5058671;28;45198;-69
2022/01/09 05:53:42;;;;;;;;;2.75;2.00;;;;;4.59;100.00;99597.09;5057343;28;45377;-67
2022/01/09 05:56:07;;;;;;;;;1.75;1.25;;;;;4.66;100.00;99616.81;5056337;28;45470;-67
2022/01/09 05:58:34;;;;;;;;;3.50;2.00;;;;;4.68;100.00;99606.38;5055232;28;45694;-70
2022/01/09 06:01:00;;;;;;;;;3.25;1.00;;;;;4.75;100.00;99636.53;5055317;28;45545;-69
2022/01/09 06:03:25;;;;;;;;;2.50;1.00;;;;;4.77;100.00;99649.50;5055451;28;45425;-67
2022/01/09 06:05:51;;;;;;;;;2.00;1.00;;;;;4.59;100.00;99641.34;5056781;28;46157;-67
2022/01/09 06:08:16;;;;;;;;;3.75;2.00;;;;;4.62;100.00;99643.88;5036763;28;45402;-66
2022/01/09 06:10:42;;;;;;;;;8.00;3.25;;;;;4.63;100.00;99634.31;5037889;28;45412;-69
2022/01/09 06:13:07;;;;;;;;;6.25;3.75;;;;;4.64;100.00;99625.59;5055468;28;45693;-66
2022/01/09 06:15:32;;;;;;;;;9.25;5.00;;;;;4.62;100.00;99620.44;5047981;28;46917;-69
2022/01/09 06:17:58;;;;;;;;;6.50;2.00;;;;;4.63;100.00;99635.16;5038362;28;45404;-68
2022/01/09 06:20:23;;;;;;;;;4.75;3.00;;;;;4.64;100.00;99628.22;5045698;28;45355;-68
2022/01/09 06:22:49;;;;;;;;;10.75;3.50;;;;;4.66;100.00;99629.00;5059631;28;45493;-65
2022/01/09 06:25:15;;;;;;;;;6.75;4.00;;;;;4.72;100.00;99639.25;5059300;28;46144;-64
2022/01/09 06:27:40;;;;;;;;;9.50;6.25;;;;;4.76;100.00;99634.78;5040940;28;45377;-63
2022/01/09 06:30:07;;;;;;;;;12.25;6.00;;;;;4.80;100.00;99639.84;5060015;28;45263;-67
2022/01/09 06:32:33;;;;;;;;;6.50;2.00;;;;;4.81;100.00;99628.53;5060568;28;45480;-66
2022/01/09 06:34:58;;;;;;;;;3.75;3.25;;;;;4.86;100.00;99631.00;5058005;28;45284;-68
2022/01/09 06:37:23;;;;;;;;;10.25;6.50;;;;;4.84;100.00;99638.03;5058145;28;45280;-66
2022/01/09 06:39:49;;;;;;;;;7.50;3.75;;;;;4.86;100.00;99635.34;5058414;28;45768;-68
2022/01/09 06:42:14;;;;;;;;;5.50;1.75;;;;;4.87;100.00;99637.06;5059887;28;45373;-67
2022/01/09 06:44:40;;;;;;;;;7.00;1.00;;;;;4.86;100.00;99644.03;5058214;28;45345;-68
2022/01/09 06:47:06;;;;;;;;;3.00;2.00;;;;;4.86;100.00;99645.78;5058279;28;45279;-68
2022/01/09 06:49:33;;;;;;;;;3.00;1.00;;;;;4.85;100.00;99646.66;5057526;28;45435;-69
2022/01/09 06:51:59;;;;;;;;;2.75;2.00;;;;;4.85;100.00;99655.34;5037062;28;45585;-66
2022/01/09 06:54:25;;;;;;;;;5.00;2.00;;;;;4.84;100.00;99658.88;5055374;28;46192;-70
2022/01/09 06:56:50;;;;;;;;;3.00;1.00;;;;;4.83;100.00;99649.34;5057669;28;45298;-68
2022/01/09 06:59:15;;;;;;;;;2.00;1.00;;;;;4.82;100.00;99645.88;5058395;28;45413;-69
2022/01/09 07:01:40;;;;;;;;;0.75;0.00;;;;;4.82;100.00;99647.63;5057939;28;45521;-67
2022/01/09 07:04:06;;;;;;;;;2.00;0.25;;;;;4.82;100.00;99642.44;5058986;28;45319;-66
2022/01/09 07:06:31;;;;;;;;;4.00;2.00;;;;;4.81;100.00;99638.13;5061891;28;45394;-70
2022/01/09 07:08:57;;;;;;;;;1.75;0.25;;;;;4.75;100.00;99631.31;5047943;28;45514;-68
2022/01/09 07:11:22;;;;;;;;;0.00;0.00;;;;;4.80;100.00;99641.63;5059475;28;45277;-67
2022/01/09 07:13:47;;;;;;;;;1.25;0.00;;;;;4.78;100.00;99635.59;5039444;28;48454;-68
2022/01/09 07:16:13;;;;;;;;;0.25;0.00;;;;;4.77;100.00;99634.75;5058443;28;45355;-63
2022/01/09 07:18:38;;;;;;;;;0.00;0.00;;;;;4.75;100.00;99639.16;5061352;28;45256;-66
2022/01/09 07:21:04;;;;;;;;;1.75;1.00;;;;;4.78;100.00;99643.44;5060213;28;45488;-69
2022/01/09 07:23:30;;;;;;;;;0.00;0.00;;;;;4.75;100.00;99643.50;5057048;28;45494;-67
2022/01/09 07:25:55;;;;;;;;;0.00;0.00;;;;;4.76;100.00;99647.78;5056550;28;45368;-67
2022/01/09 07:28:21;;;;;;;;;1.00;0.25;;;;;4.78;100.00;99643.44;5060284;28;45455;-69
2022/01/09 07:30:46;;;;;;;;;1.00;1.00;;;;;4.73;100.00;99643.56;5060095;28;45320;-68
2022/01/09 07:33:12;;;;;;;;;0.00;0.00;;;;;4.81;100.00;99658.97;5061107;28;45971;-68
2022/01/09 07:35:37;;;;;;;;;2.50;0.00;;;;;4.80;100.00;99655.50;5060634;28;45375;-70
2022/01/09 07:38:03;;;;;;;;;1.50;0.00;;;;;4.81;100.00;99659.78;5060608;28;45870;-70
2022/01/09 07:40:28;;;;;;;;;3.75;0.00;;;;;4.78;100.00;99653.84;5059429;28;45411;-69
2022/01/09 07:42:54;;;;;;;;;1.75;0.00;;;;;4.73;100.00;99653.09;5058171;28;46031;-66
2022/01/09 07:45:24;;;;;;;;;2.50;0.75;;;;;4.72;100.00;99652.28;5056841;28;45332;-66
2022/01/09 07:47:50;;;;;;;;;4.50;1.00;;;;;4.65;100.00;99659.41;5056985;28;45489;-63
2022/01/09 07:50:16;;;;;;;;;1.75;0.00;;;;;4.56;100.00;99651.03;5056800;28;45277;-68
2022/01/09 07:52:41;;;;;;;;;0.00;0.00;;;;;4.46;100.00;99651.31;5058048;28;45922;-67
2022/01/09 07:55:08;;;;;;;;;2.00;0.00;;;;;4.44;100.00;99642.69;5058199;28;45527;-68
2022/01/09 07:57:34;;;;;;;;;1.00;0.50;;;;;4.45;100.00;99652.22;5056760;28;45406;-70
2022/01/09 08:00:03;;;;;;;;;2.00;1.00;;;;;4.46;100.00;99659.13;5057164;28;45507;-69
2022/01/09 08:02:29;;;;;;;;;1.00;1.00;;;;;4.50;100.00;99657.28;5057493;28;46125;-67
2022/01/09 08:04:54;;;;;;;;;6.75;1.00;;;;;4.47;100.00;99658.22;5058092;28;45328;-61
2022/01/09 08:07:20;;;;;;;;;2.00;2.00;;;;;4.51;100.00;99656.38;5039262;28;45282;-66
2022/01/09 08:09:46;;;;;;;;;3.25;1.75;;;;;4.47;100.00;99637.41;5057903;28;45262;-69
2022/01/09 08:12:14;;;;;;;;;3.50;1.50;;;;;4.50;100.00;99639.91;5039564;28;47405;-69
2022/01/09 08:14:41;;;;;;;;;3.50;1.75;;;;;4.51;100.00;99633.78;5041276;28;45352;-71
2022/01/09 08:17:07;;;;;;;;;1.50;1.00;;;;;4.52;100.00;99638.09;5061125;28;45293;-69
2022/01/09 08:19:35;;;;;;;;;1.00;0.25;;;;;4.50;100.00;99639.03;5059060;28;45567;-69
2022/01/09 08:22:01;;;;;;;;;4.25;1.75;;;;;4.53;100.00;99651.97;5055941;28;47254;-70
2022/01/09 08:24:26;;;;;;;;;1.00;0.75;;;;;4.52;100.00;99661.53;5055570;28;45430;-68
2022/01/09 08:26:53;;;;;;;;;0.50;0.50;;;;;4.45;100.00;99662.63;5038039;28;45437;-64
2022/01/09 08:29:19;;;;;;;;;0.00;0.00;;;;;4.45;100.00;99662.63;5056036;28;45562;-66
2022/01/09 08:31:44;;;;;;;;;4.00;1.00;;;;;4.37;100.00;99659.41;5056197;28;46088;-69
2022/01/09 08:34:09;;;;;;;;;0.75;0.75;;;;;4.37;100.00;99649.81;5056596;28;45502;-68
2022/01/09 08:36:35;;;;;;;;;3.00;0.50;;;;;4.45;100.00;99662.63;5056629;28;45368;-69
2022/01/09 08:39:03;;;;;;;;;3.75;0.00;;;;;4.47;100.00;99659.97;5058000;28;45460;-69
2022/01/09 08:41:28;;;;;;;;;1.50;0.00;;;;;4.53;100.00;99665.84;5057434;28;45428;-69
2022/01/09 08:43:53;;;;;;;;;0.75;0.75;;;;;4.58;100.00;99664.88;5057398;28;45359;-69
2022/01/09 08:46:19;;;;;;;;;2.00;0.00;;;;;4.61;100.00;99663.00;5056611;28;45630;-70
2022/01/09 08:48:45;;;;;;;;;3.00;0.00;;;;;4.70;100.00;99667.09;5055946;28;45436;-69
2022/01/09 08:51:10;;;;;;;;;3.00;0.00;;;;;4.75;100.00;99662.59;5056789;28;45509;-69
2022/01/09 08:53:35;;;;;;;;;7.00;1.75;;;;;4.85;100.00;99660.56;5056059;28;45337;-68
2022/01/09 08:56:04;;;;;;;;;0.75;0.75;;;;;4.92;100.00;99659.47;5055991;28;45565;-70
2022/01/09 08:58:30;;;;;;;;;1.50;1.00;;;;;5.04;100.00;99665.19;5056561;28;45221;-66
2022/01/09 09:00:59;;;;;;;;;1.00;1.00;;;;;5.14;100.00;99665.72;5056626;28;46361;-68
2022/01/09 09:03:24;;;;;;;;;1.00;1.00;;;;;5.23;100.00;99661.09;5060004;28;45387;-68
2022/01/09 09:05:50;;;;;;;;;0.50;0.25;;;;;5.34;100.00;99667.69;5042637;28;45286;-69
2022/01/09 09:08:16;;;;;;;;;1.50;1.00;;;;;5.39;100.00;99671.88;5060450;28;45504;-69
2022/01/09 09:10:41;;;;;;;;;3.00;1.00;;;;;5.35;100.00;99665.06;5058395;28;45486;-70
2022/01/09 09:13:07;;;;;;;;;0.75;0.75;;;;;5.48;100.00;99686.34;5057379;28;45428;-68
2022/01/09 09:15:35;;;;;;;;;2.00;1.00;;;;;5.49;100.00;99689.81;5056844;28;45682;-69
2022/01/09 09:18:04;;;;;;;;;1.00;0.00;;;;;5.47;100.00;99695.06;5057142;28;45634;-69
2022/01/09 09:20:29;;;;;;;;;1.00;0.00;;;;;5.40;100.00;99677.91;5056178;28;46194;-67
2022/01/09 09:22:54;;;;;;;;;2.00;0.00;;;;;5.51;100.00;99695.84;5056058;28;45514;-63
2022/01/09 09:25:20;;;;;;;;;2.00;0.75;;;;;5.52;100.00;99692.31;5057573;28;45777;-67
2022/01/09 09:27:45;;;;;;;;;4.00;1.00;;;;;5.49;100.00;99692.44;5040411;28;45387;-67
2022/01/09 09:30:14;;;;;;;;;1.00;1.00;;;;;5.43;100.00;99696.06;5056432;28;46336;-70
2022/01/09 09:32:41;;;;;;;;;2.00;1.25;;;;;5.39;100.00;99702.31;5055893;28;45443;-68
2022/01/09 09:35:07;;;;;;;;;2.00;2.00;;;;;5.36;100.00;99703.28;5055862;28;45233;-67
2022/01/09 09:37:33;;;;;;;;;3.25;2.00;;;;;5.33;100.00;99708.59;5057236;28;45175;-69
2022/01/09 09:39:59;;;;;;;;;5.50;2.00;;;;;5.28;100.00;99715.69;5055671;28;45332;-66
2022/01/09 09:42:25;;;;;;;;;3.25;2.00;;;;;5.21;100.00;99711.56;5055503;28;45416;-65
2022/01/09 09:44:50;;;;;;;;;5.75;2.50;;;;;5.10;100.00;99704.94;5055576;28;45387;-68
2022/01/09 09:47:20;;;;;;;;;12.25;7.00;;;;;5.03;100.00;99698.22;5057053;28;45303;-69
2022/01/09 09:49:47;;;;;;;;;7.25;6.00;;;;;4.86;100.00;99696.16;5058909;28;46327;-69
2022/01/09 09:52:17;;;;;;;;;9.00;6.00;;;;;4.90;100.00;99694.28;5057851;28;45495;-71
2022/01/09 09:54:43;;;;;;;;;9.50;8.25;;;;;4.87;100.00;99721.31;5055912;28;45387;-72
2022/01/09 09:57:09;;;;;;;;;7.75;5.75;;;;;4.86;100.00;99708.31;5049549;28;45313;-68
2022/01/09 09:59:37;;;;;;;;;8.00;6.75;;;;;4.83;100.00;99707.50;5059121;28;45962;-69
2022/01/09 10:02:09;;;;;;;;;11.75;8.00;;;;;4.82;100.00;99739.66;5040320;28;46707;-71
2022/01/09 10:04:56;;;;;;;;;5.50;4.25;;;;;4.81;100.00;99730.16;5060219;28;45453;-81
2022/01/09 10:07:23;;;;;;;;;10.00;5.00;;;;;4.79;100.00;99734.56;5060727;28;45257;-74
2022/01/09 10:09:53;;;;;;;;;5.00;5.00;;;;;4.81;100.00;99742.34;5059702;28;45949;-82
2022/01/09 10:12:24;;;;;;;;;5.50;4.75;;;;;4.84;100.00;99734.44;5044605;28;45904;-80
2022/01/09 10:14:53;;;;;;;;;3.50;3.50;;;;;4.78;100.00;99722.44;5065415;28;45503;-81
2022/01/09 10:17:22;;;;;;;;;6.25;6.00;;;;;4.83;100.00;99719.69;5065932;28;45419;-77
2022/01/09 10:20:04;;;;;;;;;7.75;7.75;;;;;4.75;100.00;99701.69;5050192;28;47989;-76
2022/01/09 10:22:44;;;;;;;;;8.00;5.50;;;;;4.96;100.00;99735.78;5055560;28;45307;-68
2022/01/09 10:25:31;;;;;;;;;5.50;5.25;;;;;4.97;100.00;99727.06;5056256;28;45786;-70
2022/01/09 10:28:17;;;;;;;;;13.00;9.50;;;;;5.03;100.00;99721.66;5061551;28;45493;-71
2022/01/09 10:30:52;;;;;;;;;11.00;9.50;;;;;4.95;100.00;99693.25;5042971;28;46923;-70
2022/01/09 10:33:25;;;;;;;;;10.50;8.50;;;;;5.19;100.00;99718.56;5062214;28;45440;-72
2022/01/09 10:35:52;;;;;;;;;6.50;5.25;;;;;5.27;100.00;99732.22;5062851;28;45426;-73
2022/01/09 10:38:45;;;;;;;;;7.75;7.00;;;;;5.27;100.00;99729.63;5062119;28;46272;-72
2022/01/09 10:41:10;;;;;;;;;3.00;3.00;;;;;5.32;100.00;99732.09;5061088;28;46647;-70
2022/01/09 10:43:38;;;;;;;;;5.50;5.00;;;;;5.35;100.00;99727.66;5062076;28;45312;-72
2022/01/09 10:46:04;;;;;;;;;7.75;6.00;;;;;5.38;100.00;99722.31;5060623;28;45475;-70
2022/01/09 10:48:32;;;;;;;;;9.50;8.25;;;;;5.44;100.00;99730.84;5059752;28;45365;-71
2022/01/09 10:50:59;;;;;;;;;11.50;6.25;;;;;5.49;100.00;99731.56;5040356;28;45422;-68
2022/01/09 10:53:36;;;;;;;;;18.00;18.00;;;;;5.54;100.00;99729.66;5040587;28;45281;-71
2022/01/09 10:56:07;;;;;;;;;7.25;7.00;;;;;5.63;100.00;99747.59;5057554;28;45573;-72
2022/01/09 10:58:45;;;;;;;;;16.00;11.25;;;;;5.60;100.00;99755.53;5046349;28;45349;-74
2022/01/09 11:01:10;;;;;;;;;16.25;16.25;;;;;5.46;100.00;99752.53;5063845;28;45464;-74
2022/01/09 11:03:37;;;;;;;;;14.00;13.25;;;;;5.29;100.00;99740.84;5058962;28;45359;-68
2022/01/09 11:06:03;;;;;;;;;13.25;8.50;;;;;5.23;100.00;99756.69;5040817;28;46128;-72
2022/01/09 11:08:31;;;;;;;;;13.00;7.50;;;;;5.17;100.00;99759.50;5058335;28;45589;-66
2022/01/09 11:10:58;;;;;;;;;9.50;8.75;;;;;5.16;100.00;99757.78;5058415;28;46227;-65
2022/01/09 11:13:25;;;;;;;;;17.75;14.00;;;;;5.11;100.00;99761.38;5057405;28;45227;-65
2022/01/09 11:18:39;;;;;;;;;22.50;15.00;;;;;4.90;100.00;99749.00;5057730;28;45348;-68
2022/01/09 11:21:05;;;;;;;;;37.00;31.25;;;;;5.03;100.00;99752.94;5058032;28;46862;-64
2022/01/09 11:23:49;;;;;;;;;17.25;14.25;;;;;5.04;100.00;99757.25;5058379;28;45348;-66
2022/01/09 11:26:16;;;;;;;;;29.75;22.50;;;;;5.09;100.00;99754.53;5057600;28;45411;-63
2022/01/09 11:28:46;;;;;;;;;24.00;22.00;;;;;5.14;100.00;99743.94;5039177;28;45289;-61
2022/01/09 11:31:20;;;;;;;;;18.75;15.00;;;;;5.26;100.00;99746.16;5056619;28;45453;-61
2022/01/09 11:34:10;;;;;;;;;15.25;13.25;;;;;5.46;100.00;99748.16;5056608;28;45461;-61
2022/01/09 11:36:57;;;;;;;;;14.75;14.75;;;;;5.65;100.00;99748.41;5057040;28;45326;-64